Time;durP1;ratioP1;P1;durP2;ratioP2;P2;SDS_P1;SDS_P2;PMS_P1;PMS_P2;Temp;Humidity;BMP_temperature;BMP_pressure;BME280_temperature;BME280_humidity;BME280_pressure;Samples;Min_cycle;Max_cycle;Signal;HPM_P1;HPM_P2
2023/10/31 04:00:56;;;;;;;0.20;0.20;;;25.30;40.20;;;;;;5855428;22;46412;-53
2023/10/31 04:03:21;;;;;;;0.10;0.10;;;25.30;40.30;;;;;;5034958;22;47702;-81
2023/10/31 04:05:47;;;;;;;0.80;0.20;;;25.30;40.20;;;;;;4990170;28;44834;-83
2023/10/31 04:08:13;;;;;;;0.50;0.20;;;25.30;40.20;;;;;;5008767;28;44778;-82
2023/10/31 04:10:39;;;;;;;0.30;0.20;;;25.30;40.20;;;;;;5024952;28;45193;-87
2023/10/31 04:13:05;;;;;;;0.20;0.20;;;25.30;40.20;;;;;;4996481;28;45171;-81
2023/10/31 04:15:33;;;;;;;0.33;0.20;;;25.30;40.20;;;;;;4982188;28;45190;-84
2023/10/31 04:17:59;;;;;;;0.15;0.15;;;25.30;40.10;;;;;;4983206;28;44805;-85
2023/10/31 04:20:30;;;;;;;0.13;0.13;;;25.30;40.20;;;;;;4986235;28;45381;-81
2023/10/31 04:22:56;;;;;;;0.20;0.20;;;25.20;40.10;;;;;;5002753;28;46945;-82
2023/10/31 07:58:57;;;;;;;0.65;0.28;;;25.10;39.00;;;;;;4836666;29;45531;-80
2023/10/31 08:02:49;;;;;;;0.60;0.30;;;25.20;39.00;;;;;;4827024;29;45100;-84
2023/10/31 08:06:50;;;;;;;1.05;0.70;;;25.20;38.90;;;;;;4789347;29;45288;-83
2023/10/31 08:10:58;;;;;;;1.20;0.80;;;25.20;38.80;;;;;;4733931;29;45380;-94
2023/10/31 08:14:10;;;;;;;2.13;1.20;;;25.30;38.70;;;;;;5069204;27;45387;-44
2023/10/31 08:16:35;;;;;;;1.42;1.10;;;25.30;38.70;;;;;;5051960;27;45263;-44
2023/10/31 08:19:01;;;;;;;1.90;1.30;;;25.40;38.70;;;;;;5053189;27;45494;-44
2023/10/31 08:21:33;;;;;;;1.50;1.40;;;25.40;38.60;;;;;;5055043;27;45438;-44
2023/10/31 08:23:59;;;;;;;1.27;1.05;;;25.40;38.50;;;;;;5061647;27;45667;-43
2023/10/31 08:26:24;;;;;;;1.10;1.00;;;25.50;38.50;;;;;;5063063;27;45248;-43
2023/10/31 08:28:51;;;;;;;2.13;1.20;;;25.50;38.50;;;;;;5079576;27;45551;-43
2023/10/31 08:31:17;;;;;;;1.40;1.10;;;25.50;38.40;;;;;;5042421;27;45323;-44
2023/10/31 08:33:42;;;;;;;2.70;1.20;;;25.50;38.30;;;;;;5062424;27;46346;-45
2023/10/31 08:36:08;;;;;;;1.10;1.00;;;25.60;38.30;;;;;;5046971;27;45469;-45
2023/10/31 08:38:34;;;;;;;1.55;0.80;;;25.60;38.30;;;;;;5033566;27;45289;-45
2023/10/31 08:40:59;;;;;;;1.77;0.80;;;25.60;38.20;;;;;;5059770;27;45486;-45
2023/10/31 08:43:25;;;;;;;1.30;1.00;;;25.70;38.20;;;;;;5064210;27;45334;-43
2023/10/31 08:45:51;;;;;;;1.00;0.70;;;25.70;38.10;;;;;;5065209;27;45171;-43
2023/10/31 08:48:16;;;;;;;1.07;0.73;;;25.80;38.20;;;;;;5068674;27;45563;-43
2023/10/31 08:50:42;;;;;;;0.70;0.60;;;25.70;38.00;;;;;;5051267;27;45770;-45
2023/10/31 08:53:07;;;;;;;2.30;0.70;;;25.80;38.00;;;;;;5043186;27;45915;-43
2023/10/31 08:55:33;;;;;;;0.60;0.47;;;25.80;37.90;;;;;;5039046;27;47794;-44
2023/10/31 08:57:58;;;;;;;0.73;0.60;;;25.90;37.90;;;;;;5049523;27;45475;-44
2023/10/31 09:00:24;;;;;;;0.90;0.60;;;25.90;37.90;;;;;;5044234;27;45376;-45
2023/10/31 09:02:50;;;;;;;1.30;0.60;;;25.90;37.80;;;;;;5027977;27;45858;-46
2023/10/31 09:05:15;;;;;;;0.50;0.40;;;26.00;37.80;;;;;;5030742;27;45220;-46
2023/10/31 09:07:41;;;;;;;0.57;0.50;;;26.00;37.80;;;;;;5060874;27;45802;-44
2023/10/31 09:10:07;;;;;;;1.27;0.60;;;26.10;37.70;;;;;;5053943;27;45417;-44
2023/10/31 09:12:32;;;;;;;1.30;0.60;;;26.10;37.70;;;;;;5059766;27;45765;-45
2023/10/31 09:14:58;;;;;;;0.87;0.57;;;26.10;37.60;;;;;;5061124;27;45378;-46
2023/10/31 09:17:23;;;;;;;0.80;0.50;;;26.10;37.50;;;;;;5045706;27;45322;-44
2023/10/31 09:19:49;;;;;;;1.13;0.53;;;26.20;37.50;;;;;;5065911;27;45128;-46
2023/10/31 09:22:16;;;;;;;0.90;0.53;;;26.20;37.50;;;;;;5053977;27;44927;-45
2023/10/31 09:24:42;;;;;;;0.95;0.55;;;26.30;37.50;;;;;;5064290;27;45301;-45
2023/10/31 09:27:08;;;;;;;1.33;0.43;;;26.30;37.40;;;;;;5043001;27;45775;-44
2023/10/31 09:29:33;;;;;;;0.90;0.50;;;26.30;37.30;;;;;;5038338;27;45283;-45
2023/10/31 09:31:59;;;;;;;2.28;0.50;;;26.40;37.30;;;;;;5042383;27;46920;-45
2023/10/31 09:34:24;;;;;;;0.50;0.40;;;26.40;37.30;;;;;;5046484;27;45630;-44
2023/10/31 09:36:50;;;;;;;1.00;0.40;;;26.40;37.30;;;;;;5045637;27;46143;-44
2023/10/31 09:39:16;;;;;;;0.70;0.30;;;26.50;37.30;;;;;;5056341;27;45184;-45
2023/10/31 09:41:41;;;;;;;0.30;0.20;;;26.50;37.30;;;;;;5039700;27;45816;-44
2023/10/31 09:44:07;;;;;;;0.70;0.40;;;26.50;37.20;;;;;;5046551;27;45248;-45
2023/10/31 09:46:33;;;;;;;0.50;0.30;;;26.60;37.20;;;;;;5033441;27;45357;-44
2023/10/31 09:48:58;;;;;;;0.60;0.40;;;26.60;37.10;;;;;;5050241;27;45469;-45
2023/10/31 09:51:24;;;;;;;1.40;0.30;;;26.70;37.10;;;;;;5005090;27;46270;-45
2023/10/31 09:53:50;;;;;;;1.38;0.30;;;26.70;37.10;;;;;;5028765;27;45334;-44
2023/10/31 09:56:17;;;;;;;2.33;0.40;;;26.70;37.00;;;;;;5018466;27;45519;-46
2023/10/31 09:58:42;;;;;;;0.70;0.30;;;26.80;37.10;;;;;;5047926;27;45591;-44
2023/10/31 10:01:08;;;;;;;0.53;0.30;;;26.80;37.00;;;;;;5017284;27;45721;-45
2023/10/31 10:03:34;;;;;;;1.73;0.33;;;26.80;37.00;;;;;;5051489;27;45034;-45
2023/10/31 10:05:59;;;;;;;0.60;0.20;;;26.90;37.00;;;;;;5042547;27;45644;-44
2023/10/31 10:08:25;;;;;;;0.60;0.20;;;26.90;36.90;;;;;;5030894;27;45009;-45
2023/10/31 10:10:51;;;;;;;0.40;0.20;;;26.90;36.90;;;;;;5035340;27;45896;-44
2023/10/31 10:13:23;;;;;;;0.73;0.30;;;26.90;36.80;;;;;;5029992;27;45629;-45
2023/10/31 10:15:52;;;;;;;0.82;0.30;;;27.00;36.90;;;;;;5019763;28;45405;-45
2023/10/31 10:18:35;;;;;;;0.43;0.15;;;27.00;36.80;;;;;;5040013;27;45529;-46
2023/10/31 10:21:02;;;;;;;0.47;0.30;;;27.00;36.80;;;;;;5029355;27;45231;-44
2023/10/31 10:23:28;;;;;;;0.40;0.20;;;27.00;36.70;;;;;;5048543;27;45000;-44
2023/10/31 10:25:54;;;;;;;0.45;0.28;;;27.00;36.70;;;;;;5023052;27;45324;-44
2023/10/31 10:28:20;;;;;;;1.35;0.20;;;27.00;36.70;;;;;;5047862;27;45556;-45
2023/10/31 10:30:48;;;;;;;0.50;0.20;;;27.10;36.70;;;;;;5032709;27;46091;-45
2023/10/31 10:33:14;;;;;;;0.90;0.20;;;27.10;36.70;;;;;;5046263;27;44940;-44
2023/10/31 10:35:40;;;;;;;0.33;0.20;;;27.20;36.70;;;;;;5039636;27;45362;-46
2023/10/31 10:38:13;;;;;;;0.45;0.30;;;27.10;36.60;;;;;;5047349;27;45451;-45
2023/10/31 10:40:43;;;;;;;0.38;0.15;;;27.20;36.60;;;;;;5040625;27;45703;-45
2023/10/31 10:43:19;;;;;;;0.50;0.15;;;27.20;36.60;;;;;;5040707;27;45715;-45
2023/10/31 10:45:44;;;;;;;0.55;0.20;;;27.20;36.60;;;;;;5024060;27;45721;-46
2023/10/31 10:48:14;;;;;;;0.70;0.20;;;27.20;36.60;;;;;;5006788;27;45416;-44
2023/10/31 10:50:42;;;;;;;0.47;0.32;;;27.20;36.60;;;;;;5014342;28;46170;-44
2023/10/31 10:53:16;;;;;;;0.43;0.20;;;27.30;36.60;;;;;;5047386;27;45469;-47
2023/10/31 10:55:45;;;;;;;0.20;0.20;;;27.20;36.50;;;;;;5006011;27;45497;-44
2023/10/31 10:58:22;;;;;;;0.28;0.20;;;27.30;36.50;;;;;;5059525;27;45442;-44
2023/10/31 11:00:48;;;;;;;0.50;0.20;;;27.30;36.50;;;;;;5005780;28;46036;-44
2023/10/31 11:03:14;;;;;;;0.30;0.10;;;27.30;36.50;;;;;;5026452;27;45315;-45
2023/10/31 11:05:39;;;;;;;1.50;0.27;;;27.30;36.50;;;;;;5021138;27;47632;-45
2023/10/31 11:08:05;;;;;;;0.40;0.20;;;27.30;36.40;;;;;;5029455;27;45579;-45
2023/10/31 11:10:31;;;;;;;0.38;0.20;;;27.40;36.50;;;;;;5024505;27;46087;-44
2023/10/31 11:12:56;;;;;;;0.75;0.20;;;27.40;36.50;;;;;;5019572;27;45573;-45
2023/10/31 11:15:22;;;;;;;0.40;0.30;;;27.30;36.40;;;;;;5029921;27;45198;-49
2023/10/31 11:17:47;;;;;;;0.30;0.30;;;27.30;36.40;;;;;;5032808;27;45489;-46
2023/10/31 11:20:14;;;;;;;1.10;0.30;;;27.40;36.40;;;;;;5036242;27;46079;-46
2023/10/31 11:22:42;;;;;;;0.60;0.40;;;27.40;36.40;;;;;;5031338;28;45605;-47
2023/10/31 11:25:14;;;;;;;1.07;0.50;;;27.40;36.40;;;;;;5048149;27;45604;-46
2023/10/31 11:27:41;;;;;;;0.65;0.40;;;27.40;36.40;;;;;;5035477;27;45214;-43
2023/10/31 11:30:08;;;;;;;1.40;0.38;;;27.40;36.30;;;;;;5035949;27;45931;-48
2023/10/31 11:32:33;;;;;;;0.30;0.30;;;27.40;36.30;;;;;;4979411;27;45407;-46
2023/10/31 11:34:59;;;;;;;0.53;0.30;;;27.40;36.30;;;;;;5026511;27;44773;-44
2023/10/31 11:37:26;;;;;;;0.85;0.45;;;27.40;36.30;;;;;;5016439;27;46509;-46
2023/10/31 11:40:16;;;;;;;0.57;0.30;;;27.40;36.30;;;;;;5054145;27;46015;-45
2023/10/31 11:42:42;;;;;;;0.38;0.32;;;27.50;36.30;;;;;;5049846;27;45465;-48
2023/10/31 11:45:09;;;;;;;0.70;0.30;;;27.50;36.30;;;;;;5040740;27;45515;-46
2023/10/31 11:47:47;;;;;;;0.80;0.40;;;27.50;36.30;;;;;;5005447;27;45869;-46
2023/10/31 11:50:16;;;;;;;0.30;0.30;;;27.50;36.30;;;;;;5032121;27;45525;-51
2023/10/31 11:52:42;;;;;;;1.07;0.50;;;27.50;36.60;;;;;;5028478;28;45236;-47
2023/10/31 11:55:14;;;;;;;0.63;0.43;;;27.50;36.20;;;;;;5046829;27;44944;-45
2023/10/31 11:57:40;;;;;;;0.70;0.43;;;27.50;36.30;;;;;;5028147;27;45328;-45
2023/10/31 12:00:16;;;;;;;0.73;0.60;;;27.50;36.20;;;;;;5048915;27;45439;-48
2023/10/31 12:02:42;;;;;;;1.00;0.45;;;27.50;36.10;;;;;;5027369;28;44772;-46
2023/10/31 12:05:09;;;;;;;0.90;0.50;;;27.50;36.10;;;;;;5027479;27;45234;-45
2023/10/31 12:07:46;;;;;;;0.73;0.40;;;27.50;36.10;;;;;;5046495;27;46449;-46
2023/10/31 12:10:12;;;;;;;0.50;0.40;;;27.50;36.10;;;;;;5045640;27;45439;-45
2023/10/31 12:12:38;;;;;;;1.58;0.45;;;27.50;36.10;;;;;;5042092;27;46563;-44
2023/10/31 12:15:08;;;;;;;0.57;0.30;;;27.50;36.10;;;;;;5049875;27;45711;-47
2023/10/31 12:17:34;;;;;;;0.57;0.40;;;27.50;36.00;;;;;;5006098;27;45332;-45
2023/10/31 12:20:05;;;;;;;0.93;0.43;;;27.50;36.00;;;;;;5046816;27;46111;-46
2023/10/31 12:22:30;;;;;;;0.93;0.40;;;27.50;36.10;;;;;;5020528;27;46342;-45
2023/10/31 12:25:06;;;;;;;1.15;0.43;;;27.60;36.10;;;;;;5042504;27;45185;-46
2023/10/31 12:28:04;;;;;;;0.40;0.40;;;27.60;36.00;;;;;;5011267;27;44953;-45
2023/10/31 12:30:30;;;;;;;0.88;0.40;;;27.60;36.00;;;;;;4969341;27;46274;-47
2023/10/31 12:32:56;;;;;;;1.13;0.32;;;27.50;36.00;;;;;;4995783;27;45418;-44
2023/10/31 12:35:23;;;;;;;0.40;0.30;;;27.60;36.00;;;;;;4974685;27;45130;-47
2023/10/31 12:37:49;;;;;;;1.50;0.47;;;27.60;36.00;;;;;;5033182;27;45382;-47
2023/10/31 12:40:17;;;;;;;0.57;0.30;;;27.60;36.00;;;;;;5028164;27;46961;-46
2023/10/31 12:42:44;;;;;;;0.40;0.30;;;27.60;36.00;;;;;;5004429;28;45344;-44
2023/10/31 12:45:11;;;;;;;1.83;0.50;;;27.60;35.90;;;;;;5005622;27;45481;-46
2023/10/31 12:47:37;;;;;;;0.60;0.40;;;27.60;35.90;;;;;;5020832;27;45191;-45
2023/10/31 12:50:13;;;;;;;0.68;0.40;;;27.60;35.90;;;;;;5051988;27;46175;-46
2023/10/31 12:52:52;;;;;;;0.38;0.30;;;27.60;35.90;;;;;;5031409;27;45215;-44
2023/10/31 12:55:22;;;;;;;0.67;0.40;;;27.60;35.90;;;;;;5049654;27;45603;-46
2023/10/31 12:57:48;;;;;;;0.50;0.30;;;27.60;35.80;;;;;;5055470;27;45148;-45
2023/10/31 13:00:14;;;;;;;0.80;0.40;;;27.60;35.90;;;;;;5039800;27;46359;-46
2023/10/31 13:02:40;;;;;;;0.77;0.50;;;27.60;35.90;;;;;;5031053;27;45454;-46
2023/10/31 13:05:09;;;;;;;1.65;0.50;;;27.60;35.80;;;;;;5049329;27;45207;-46
2023/10/31 13:07:35;;;;;;;0.77;0.40;;;27.50;35.80;;;;;;5049571;27;44999;-44
2023/10/31 13:10:01;;;;;;;0.67;0.33;;;27.60;35.80;;;;;;5055516;27;45921;-45
2023/10/31 13:12:27;;;;;;;0.90;0.40;;;27.60;35.80;;;;;;5043292;27;45748;-44
2023/10/31 13:14:53;;;;;;;0.98;0.38;;;27.60;35.80;;;;;;5036614;27;45372;-44
2023/10/31 13:17:19;;;;;;;0.75;0.50;;;27.60;35.80;;;;;;5000801;27;47347;-44
2023/10/31 13:19:44;;;;;;;0.70;0.32;;;27.60;35.80;;;;;;5047441;27;45957;-44
2023/10/31 13:22:10;;;;;;;0.70;0.37;;;27.60;35.80;;;;;;5051791;27;45190;-44
2023/10/31 13:24:35;;;;;;;0.60;0.30;;;27.60;35.80;;;;;;5062629;27;45266;-43
2023/10/31 13:27:02;;;;;;;0.90;0.50;;;27.60;35.80;;;;;;5048838;27;44826;-44
2023/10/31 13:29:28;;;;;;;1.00;0.50;;;27.60;35.80;;;;;;5055764;27;46589;-45
2023/10/31 13:31:53;;;;;;;0.80;0.40;;;27.60;35.80;;;;;;5039050;27;45682;-44
2023/10/31 13:34:19;;;;;;;1.20;0.37;;;27.60;35.80;;;;;;5035335;27;45262;-43
2023/10/31 13:36:44;;;;;;;1.45;0.68;;;27.60;35.80;;;;;;5038014;27;45628;-44
2023/10/31 13:39:10;;;;;;;0.85;0.40;;;27.70;35.80;;;;;;5038150;27;46748;-44
2023/10/31 13:41:36;;;;;;;0.73;0.43;;;27.70;35.80;;;;;;5045123;27;45226;-44
2023/10/31 13:44:03;;;;;;;0.90;0.50;;;27.60;35.70;;;;;;5054178;27;45492;-44
2023/10/31 13:46:29;;;;;;;0.30;0.30;;;27.70;35.80;;;;;;5034481;27;45292;-44
2023/10/31 13:48:54;;;;;;;0.70;0.40;;;27.70;35.80;;;;;;5056987;27;46130;-44
2023/10/31 13:51:20;;;;;;;0.90;0.40;;;27.60;35.70;;;;;;5048131;27;45187;-43
2023/10/31 13:53:45;;;;;;;0.57;0.40;;;27.70;35.80;;;;;;5030784;27;45375;-44
2023/10/31 13:56:11;;;;;;;0.70;0.33;;;27.60;35.70;;;;;;5033343;27;45134;-44
2023/10/31 13:58:36;;;;;;;1.20;0.50;;;27.70;35.80;;;;;;5048535;27;45122;-45
2023/10/31 14:01:02;;;;;;;1.40;0.40;;;27.70;35.70;;;;;;5038270;27;45122;-44
2023/10/31 14:03:28;;;;;;;0.60;0.40;;;27.70;35.80;;;;;;5050238;27;45344;-45
2023/10/31 14:05:53;;;;;;;0.67;0.40;;;27.70;35.70;;;;;;5038877;27;45185;-43
2023/10/31 14:08:19;;;;;;;0.50;0.30;;;27.70;35.70;;;;;;5049326;27;44951;-45
2023/10/31 14:10:45;;;;;;;1.53;0.30;;;27.70;35.80;;;;;;5039164;27;45608;-46
2023/10/31 14:13:11;;;;;;;0.50;0.30;;;27.70;35.70;;;;;;5046221;27;45976;-44
2023/10/31 14:15:37;;;;;;;0.93;0.40;;;27.70;35.70;;;;;;5035840;27;45175;-43
2023/10/31 14:18:03;;;;;;;0.68;0.40;;;27.70;35.70;;;;;;5051434;27;46170;-46
2023/10/31 14:20:29;;;;;;;0.50;0.35;;;27.60;36.20;;;;;;5038291;27;45519;-44
2023/10/31 14:22:54;;;;;;;1.15;0.50;;;27.70;35.70;;;;;;5038032;27;45561;-44
2023/10/31 14:25:20;;;;;;;0.77;0.40;;;27.70;35.70;;;;;;5046840;27;45065;-44
2023/10/31 14:27:46;;;;;;;1.10;0.50;;;27.70;35.70;;;;;;5052191;27;46143;-45
2023/10/31 14:30:12;;;;;;;1.17;0.40;;;27.70;35.70;;;;;;5040773;27;45556;-44
2023/10/31 14:32:38;;;;;;;0.85;0.40;;;27.70;35.70;;;;;;5011255;27;45365;-43
2023/10/31 14:35:04;;;;;;;0.40;0.30;;;27.70;35.70;;;;;;5051762;27;45327;-47
2023/10/31 14:37:30;;;;;;;1.27;0.40;;;27.70;35.70;;;;;;5051161;27;45509;-45
2023/10/31 14:39:56;;;;;;;0.65;0.40;;;27.70;35.70;;;;;;5057063;27;45238;-46
2023/10/31 14:42:21;;;;;;;0.40;0.30;;;27.70;35.70;;;;;;5048758;27;45243;-44
2023/10/31 14:44:47;;;;;;;1.10;0.40;;;27.70;35.70;;;;;;5031301;27;45799;-45
2023/10/31 14:47:12;;;;;;;1.13;0.40;;;27.70;35.70;;;;;;5036263;27;45191;-45
2023/10/31 14:49:39;;;;;;;0.80;0.40;;;27.70;35.70;;;;;;5057707;27;45054;-46
2023/10/31 14:52:06;;;;;;;0.80;0.43;;;27.70;35.70;;;;;;5043470;27;45968;-44
2023/10/31 14:54:31;;;;;;;1.90;0.70;;;27.70;35.70;;;;;;5056530;27;45452;-44
2023/10/31 14:56:57;;;;;;;0.88;0.32;;;27.70;35.70;;;;;;5049893;27;45649;-44
2023/10/31 14:59:23;;;;;;;0.77;0.40;;;27.70;35.70;;;;;;5056255;27;45805;-44
2023/10/31 15:01:48;;;;;;;0.82;0.43;;;27.70;35.70;;;;;;5025703;27;45695;-43
2023/10/31 15:04:14;;;;;;;0.77;0.50;;;27.70;35.70;;;;;;5031907;27;50058;-44
2023/10/31 15:06:39;;;;;;;0.83;0.40;;;27.70;35.70;;;;;;5040745;27;45704;-45
2023/10/31 15:09:05;;;;;;;0.90;0.50;;;27.70;35.70;;;;;;5049577;27;45397;-43
2023/10/31 15:11:32;;;;;;;1.25;0.50;;;27.70;35.70;;;;;;5045869;27;45044;-43
2023/10/31 15:13:57;;;;;;;0.85;0.40;;;27.70;35.70;;;;;;5049135;27;45716;-44
2023/10/31 15:16:23;;;;;;;0.80;0.30;;;27.70;35.70;;;;;;5042683;27;45210;-44
2023/10/31 15:18:49;;;;;;;1.27;0.45;;;27.70;35.70;;;;;;5048227;27;45638;-45
2023/10/31 15:21:14;;;;;;;1.23;0.55;;;27.70;35.70;;;;;;5044334;27;45336;-43
2023/10/31 15:23:40;;;;;;;0.90;0.50;;;27.70;35.70;;;;;;4986922;22;45739;-53
2023/10/31 15:26:08;;;;;;;0.50;0.40;;;27.70;35.70;;;;;;4989135;28;45306;-52
2023/10/31 15:28:36;;;;;;;1.30;0.40;;;27.70;35.70;;;;;;5000272;28;45519;-55
2023/10/31 15:31:01;;;;;;;1.60;0.60;;;27.70;35.70;;;;;;4964904;28;45261;-53
2023/10/31 15:33:27;;;;;;;1.37;0.50;;;27.70;35.70;;;;;;4974372;28;45153;-52
2023/10/31 15:35:52;;;;;;;0.70;0.40;;;27.70;35.70;;;;;;4985070;28;45883;-54
2023/10/31 15:38:18;;;;;;;1.23;0.40;;;27.70;35.70;;;;;;4993535;28;45223;-56
2023/10/31 15:40:44;;;;;;;0.85;0.50;;;27.70;35.70;;;;;;4978551;28;45573;-54
2023/10/31 15:43:09;;;;;;;1.13;0.50;;;27.70;35.70;;;;;;4960105;28;45411;-55
2023/10/31 15:45:39;;;;;;;0.73;0.50;;;27.70;35.70;;;;;;4956344;28;46382;-55
2023/10/31 15:48:06;;;;;;;0.80;0.40;;;27.70;35.70;;;;;;4995643;28;45244;-54
2023/10/31 15:50:31;;;;;;;1.00;0.55;;;27.70;35.70;;;;;;4979066;28;44705;-53
2023/10/31 15:52:57;;;;;;;0.63;0.50;;;27.70;35.70;;;;;;4988835;28;45291;-54
2023/10/31 15:55:22;;;;;;;0.97;0.57;;;27.70;35.70;;;;;;4986214;28;46270;-51
2023/10/31 15:57:48;;;;;;;0.90;0.50;;;27.70;35.70;;;;;;4993118;28;45195;-55
2023/10/31 16:00:14;;;;;;;1.07;0.53;;;27.70;35.70;;;;;;4965642;28;44954;-54
2023/10/31 16:02:40;;;;;;;2.00;0.57;;;27.70;35.70;;;;;;4965346;28;46010;-51
2023/10/31 16:05:06;;;;;;;0.70;0.50;;;27.70;35.70;;;;;;4984054;28;45526;-54
2023/10/31 16:07:32;;;;;;;1.17;0.60;;;27.70;35.70;;;;;;4958997;28;45146;-55
2023/10/31 16:09:57;;;;;;;0.88;0.50;;;27.70;35.70;;;;;;4988955;28;45346;-51
2023/10/31 16:12:23;;;;;;;1.50;0.60;;;27.60;35.60;;;;;;4987670;28;45288;-54
2023/10/31 16:14:48;;;;;;;0.77;0.60;;;27.70;35.80;;;;;;4984427;28;45408;-55
2023/10/31 16:17:14;;;;;;;1.00;0.50;;;27.70;35.70;;;;;;4972440;28;45299;-56
2023/10/31 16:19:40;;;;;;;2.37;0.50;;;27.70;35.70;;;;;;4964982;28;45361;-56
2023/10/31 16:22:06;;;;;;;1.40;0.70;;;27.70;35.70;;;;;;4981503;28;45205;-55
2023/10/31 16:24:31;;;;;;;1.80;0.93;;;27.70;35.70;;;;;;4998407;28;45310;-53
2023/10/31 16:26:57;;;;;;;1.20;0.73;;;27.70;35.70;;;;;;4984511;28;45393;-54
2023/10/31 16:29:23;;;;;;;0.93;0.60;;;27.70;35.70;;;;;;4993956;28;45550;-54
2023/10/31 16:31:48;;;;;;;0.90;0.57;;;27.70;35.70;;;;;;4971508;28;45391;-51
2023/10/31 16:34:14;;;;;;;1.58;0.40;;;27.70;36.30;;;;;;4992273;28;46163;-54
2023/10/31 16:36:39;;;;;;;1.15;0.60;;;27.70;35.70;;;;;;4961687;28;45240;-55
2023/10/31 16:39:06;;;;;;;1.13;0.60;;;27.60;35.60;;;;;;5000699;28;45304;-56
2023/10/31 16:41:32;;;;;;;1.60;0.60;;;27.70;35.70;;;;;;4981217;28;45199;-54
2023/10/31 16:43:57;;;;;;;1.70;0.60;;;27.70;35.70;;;;;;4994937;28;46004;-57
2023/10/31 16:46:23;;;;;;;1.60;0.60;;;27.60;35.60;;;;;;4971708;28;45313;-52
2023/10/31 16:48:48;;;;;;;1.03;0.50;;;27.60;35.60;;;;;;4990898;28;45212;-55
2023/10/31 16:51:15;;;;;;;0.80;0.60;;;27.60;35.60;;;;;;4981708;28;45263;-55
2023/10/31 16:53:41;;;;;;;1.45;0.63;;;27.60;35.60;;;;;;4993107;28;45448;-53
2023/10/31 16:56:07;;;;;;;1.38;0.75;;;27.60;35.60;;;;;;4987826;28;45231;-53
2023/10/31 16:58:32;;;;;;;1.50;0.63;;;27.60;35.60;;;;;;4974634;28;45424;-52
2023/10/31 17:00:58;;;;;;;1.90;0.77;;;27.60;35.60;;;;;;4978247;28;45434;-52
2023/10/31 17:03:23;;;;;;;1.37;0.70;;;27.60;35.60;;;;;;4977793;28;45237;-53
2023/10/31 17:05:49;;;;;;;0.67;0.60;;;27.60;35.60;;;;;;4982631;28;45439;-54
2023/10/31 17:08:15;;;;;;;1.40;0.60;;;27.60;35.60;;;;;;4999866;28;45658;-53
2023/10/31 17:10:40;;;;;;;1.53;0.70;;;27.60;35.60;;;;;;4987689;28;45393;-54
2023/10/31 17:13:06;;;;;;;1.77;0.70;;;27.60;35.50;;;;;;4997767;28;45716;-52
2023/10/31 17:15:32;;;;;;;1.30;0.70;;;27.60;35.50;;;;;;4981201;28;45930;-54
2023/10/31 17:18:00;;;;;;;1.98;0.73;;;27.60;35.60;;;;;;4995706;28;45370;-54
2023/10/31 17:20:25;;;;;;;1.85;0.70;;;27.60;35.50;;;;;;4989270;28;45279;-55
2023/10/31 17:22:51;;;;;;;2.77;1.00;;;27.60;35.50;;;;;;4970251;28;49047;-52
2023/10/31 17:25:16;;;;;;;2.30;0.83;;;27.60;35.50;;;;;;4990285;28;45377;-53
2023/10/31 17:27:42;;;;;;;1.83;1.10;;;27.60;35.50;;;;;;4994237;28;45196;-51
2023/10/31 17:30:08;;;;;;;2.90;1.17;;;27.60;35.50;;;;;;4986558;28;45509;-53
2023/10/31 17:32:34;;;;;;;1.90;0.90;;;27.60;35.50;;;;;;4962479;28;46590;-52
2023/10/31 17:35:00;;;;;;;2.10;1.30;;;27.60;35.50;;;;;;4987022;28;45825;-54
2023/10/31 17:37:25;;;;;;;2.30;1.20;;;27.60;35.50;;;;;;4984956;28;45151;-53
2023/10/31 17:39:51;;;;;;;2.50;1.45;;;27.60;35.50;;;;;;4988360;28;45376;-51
2023/10/31 17:42:17;;;;;;;2.37;1.40;;;27.60;35.50;;;;;;4949049;28;45993;-52
2023/10/31 17:44:44;;;;;;;2.45;1.23;;;27.60;35.50;;;;;;4978509;28;45298;-50
2023/10/31 17:47:09;;;;;;;2.95;1.42;;;27.60;35.50;;;;;;4939345;28;47166;-56
2023/10/31 17:49:35;;;;;;;2.43;1.40;;;27.50;35.40;;;;;;4984151;28;45603;-56
2023/10/31 17:52:01;;;;;;;2.38;1.40;;;27.50;35.40;;;;;;4959766;28;46686;-55
2023/10/31 17:54:28;;;;;;;2.35;1.33;;;27.50;35.40;;;;;;4988292;28;46147;-54
2023/10/31 17:56:53;;;;;;;2.47;1.30;;;27.50;35.40;;;;;;4977930;28;45397;-51
2023/10/31 17:59:19;;;;;;;4.17;1.73;;;27.50;35.40;;;;;;4989605;28;46030;-54
2023/10/31 18:01:47;;;;;;;2.07;1.27;;;27.50;35.40;;;;;;4969956;28;45963;-53
2023/10/31 18:04:13;;;;;;;3.20;1.50;;;27.50;35.40;;;;;;4970463;28;45784;-53
2023/10/31 18:06:38;;;;;;;3.67;1.80;;;27.50;35.40;;;;;;4952662;28;46438;-53
2023/10/31 18:09:06;;;;;;;3.17;1.57;;;27.50;35.40;;;;;;4964727;28;46049;-54
2023/10/31 18:11:31;;;;;;;2.75;1.60;;;27.50;36.00;;;;;;4979595;28;45760;-51
2023/10/31 18:13:57;;;;;;;4.45;1.75;;;27.50;35.40;;;;;;4986349;28;45267;-55
2023/10/31 18:16:22;;;;;;;4.43;1.80;;;27.50;35.40;;;;;;4973441;28;45940;-54
2023/10/31 18:18:49;;;;;;;2.53;1.40;;;27.50;35.40;;;;;;4968640;28;45422;-55
2023/10/31 18:21:14;;;;;;;2.47;1.52;;;27.50;35.40;;;;;;4978117;28;45149;-56
2023/10/31 18:23:40;;;;;;;3.55;1.60;;;27.50;35.40;;;;;;4970946;28;45332;-53
2023/10/31 18:26:06;;;;;;;3.22;1.48;;;27.50;35.40;;;;;;4955092;28;45247;-54
2023/10/31 18:28:31;;;;;;;2.73;1.60;;;27.50;35.30;;;;;;4963538;28;45291;-52
2023/10/31 18:30:57;;;;;;;2.87;1.40;;;27.40;35.30;;;;;;4948861;28;45679;-52
2023/10/31 18:33:23;;;;;;;2.53;1.57;;;27.50;35.40;;;;;;4983030;28;45299;-54
2023/10/31 18:35:48;;;;;;;1.93;1.30;;;27.50;35.30;;;;;;4978160;28;45232;-52
2023/10/31 18:38:14;;;;;;;4.23;1.57;;;27.50;35.30;;;;;;4972062;28;45147;-51
2023/10/31 18:40:39;;;;;;;3.00;1.50;;;27.40;35.30;;;;;;4982643;28;46396;-54
2023/10/31 18:43:05;;;;;;;1.77;1.15;;;27.40;35.30;;;;;;4982128;28;45618;-55
2023/10/31 18:45:30;;;;;;;3.47;1.40;;;27.40;35.30;;;;;;4969411;28;45934;-52
2023/10/31 18:47:56;;;;;;;1.97;1.20;;;27.40;35.30;;;;;;4969132;28;46144;-52
2023/10/31 18:50:22;;;;;;;3.50;1.43;;;27.40;35.30;;;;;;4937116;28;45504;-51
2023/10/31 18:52:47;;;;;;;2.97;1.40;;;27.40;35.20;;;;;;4985595;28;45192;-55
2023/10/31 18:55:13;;;;;;;2.30;1.50;;;27.40;35.30;;;;;;4961558;28;45622;-53
2023/10/31 18:57:39;;;;;;;2.67;1.30;;;27.40;35.30;;;;;;4967404;28;45084;-54
2023/10/31 19:00:08;;;;;;;3.20;1.60;;;27.40;35.20;;;;;;4982622;28;46001;-52
2023/10/31 19:02:34;;;;;;;2.55;1.35;;;27.40;35.30;;;;;;4943874;28;45766;-53
2023/10/31 19:05:00;;;;;;;2.45;1.15;;;27.40;35.20;;;;;;4956108;28;45279;-53
2023/10/31 19:07:25;;;;;;;2.67;1.30;;;27.40;35.20;;;;;;4947661;28;45558;-53
2023/10/31 19:09:52;;;;;;;3.55;1.40;;;27.40;35.20;;;;;;4988063;28;45323;-52
2023/10/31 19:12:18;;;;;;;2.63;1.27;;;27.40;35.20;;;;;;4977836;28;45350;-54
2023/10/31 19:14:43;;;;;;;2.27;1.20;;;27.40;35.20;;;;;;4991093;28;44816;-53
2023/10/31 19:17:09;;;;;;;2.57;1.13;;;27.40;35.20;;;;;;4944325;28;45393;-54
2023/10/31 19:19:34;;;;;;;1.97;1.20;;;27.40;35.20;;;;;;4987255;28;45205;-54
2023/10/31 19:22:00;;;;;;;2.33;1.40;;;27.40;35.20;;;;;;4967362;28;45301;-58
2023/10/31 19:24:25;;;;;;;2.40;1.33;;;27.40;35.20;;;;;;4990353;28;45583;-52
2023/10/31 19:26:52;;;;;;;3.20;1.30;;;27.40;35.20;;;;;;4978064;28;46267;-51
2023/10/31 19:29:17;;;;;;;2.17;1.15;;;27.40;35.20;;;;;;4972628;28;46168;-52
2023/10/31 19:31:43;;;;;;;2.40;1.30;;;27.30;35.10;;;;;;4965705;28;45553;-52
2023/10/31 19:34:08;;;;;;;1.52;1.10;;;27.40;35.20;;;;;;4976421;28;46602;-53
2023/10/31 19:36:34;;;;;;;2.78;1.25;;;27.30;35.10;;;;;;4976826;28;45329;-52
2023/10/31 19:39:00;;;;;;;2.42;1.23;;;27.30;35.20;;;;;;4985723;28;45452;-52
2023/10/31 19:41:26;;;;;;;1.35;1.02;;;27.30;35.20;;;;;;4952365;28;45936;-51
2023/10/31 19:43:51;;;;;;;2.65;1.33;;;27.30;35.20;;;;;;4966167;28;45569;-53
2023/10/31 19:46:17;;;;;;;3.17;1.23;;;27.30;35.20;;;;;;4950678;28;45386;-56
2023/10/31 19:48:42;;;;;;;1.97;1.00;;;27.30;35.10;;;;;;4960587;28;46143;-53
2023/10/31 19:51:09;;;;;;;1.40;1.10;;;27.30;35.10;;;;;;4962190;28;46809;-51
2023/10/31 19:53:35;;;;;;;3.22;1.20;;;27.30;35.10;;;;;;4967326;28;45267;-56
2023/10/31 19:56:01;;;;;;;2.10;1.17;;;27.30;35.10;;;;;;4978569;28;46013;-53
2023/10/31 19:58:28;;;;;;;2.10;1.17;;;27.30;35.20;;;;;;4989237;28;45044;-55
2023/10/31 20:00:54;;;;;;;2.38;1.27;;;27.30;35.10;;;;;;4969387;28;45359;-52
2023/10/31 20:03:20;;;;;;;1.80;0.97;;;27.30;35.20;;;;;;4960692;28;45459;-55
2023/10/31 20:05:47;;;;;;;2.00;1.20;;;27.30;35.10;;;;;;4944868;28;45402;-51
2023/10/31 20:08:12;;;;;;;1.80;1.10;;;27.30;35.10;;;;;;4984917;28;45294;-54
2023/10/31 20:10:38;;;;;;;1.55;1.00;;;27.30;35.10;;;;;;4972236;28;45231;-52
2023/10/31 20:13:03;;;;;;;1.77;1.23;;;27.20;35.10;;;;;;4969971;28;45738;-52
2023/10/31 20:15:29;;;;;;;1.73;1.10;;;27.30;35.20;;;;;;4978401;28;45363;-51
2023/10/31 20:17:54;;;;;;;1.83;1.10;;;27.30;35.20;;;;;;4986778;28;45019;-52
2023/10/31 20:20:20;;;;;;;1.70;0.90;;;27.30;35.20;;;;;;4976130;28;45439;-53
2023/10/31 20:22:46;;;;;;;1.50;1.10;;;27.30;35.20;;;;;;4980003;28;47919;-54